createdAt,value
2016-03-14T00:00:41.479Z,99.99
2016-03-14T00:01:57.529Z,99.75
2016-03-14T00:02:38.345Z,99.84
2016-03-14T00:03:38.347Z,99.84
2016-03-14T00:04:39.772Z,99.99
2016-03-14T00:06:09.683Z,99.99
2016-03-14T00:06:53.527Z,99.99
2016-03-14T00:07:53.545Z,99.84
2016-03-14T00:08:54.173Z,99.99
2016-03-14T00:10:06.303Z,99.99
2016-03-14T00:10:53.585Z,99.99
2016-03-14T00:12:12.903Z,99.99
2016-03-14T00:12:53.622Z,99.99
2016-03-14T00:13:53.624Z,99.99
2016-03-14T00:15:06.349Z,99.99
2016-03-14T00:16:06.226Z,99.99
2016-03-14T00:16:53.647Z,99.99
2016-03-14T00:17:53.698Z,99.99
2016-03-14T00:18:53.732Z,99.99
2016-03-14T00:19:53.672Z,99.99
2016-03-14T00:21:06.427Z,99.99
2016-03-14T00:21:53.708Z,99.99
2016-03-14T00:22:53.710Z,99.99
2016-03-14T00:23:53.729Z,99.99
2016-03-14T00:25:12.937Z,99.99
2016-03-14T00:25:56.812Z,99.99
2016-03-14T00:26:56.831Z,99.99
2016-03-14T00:27:56.865Z,99.99
2016-03-14T00:28:56.852Z,99.99
2016-03-14T00:29:57.479Z,99.99
2016-03-14T00:30:56.873Z,99.99
2016-03-14T00:32:09.628Z,99.99
2016-03-14T00:32:56.909Z,99.99
2016-03-14T00:34:22.587Z,99.99
2016-03-14T00:35:09.683Z,99.99
2016-03-14T00:36:28.452Z,99.99
2016-03-14T00:37:16.158Z,99.99
2016-03-14T00:37:56.939Z,99.99
2016-03-14T00:39:28.272Z,99.99
2016-03-14T00:39:56.975Z,99.99
2016-03-14T00:40:56.978Z,99.99
2016-03-14T00:42:03.264Z,99.99
2016-03-14T00:43:09.845Z,99.99
2016-03-14T00:43:57.002Z,99.99
2016-03-14T00:45:22.694Z,99.99
2016-03-14T00:45:57.038Z,99.99
2016-03-14T00:46:57.057Z,99.99
2016-03-14T00:48:16.265Z,99.99
2016-03-14T00:48:57.077Z,99.99
2016-03-14T00:49:57.080Z,99.99
2016-03-14T00:51:09.835Z,99.99
2016-03-14T00:51:57.101Z,99.99
2016-03-14T00:53:16.326Z,99.99
2016-03-14T00:54:03.390Z,99.99
2016-03-14T00:54:57.140Z,99.99
2016-03-14T00:56:06.709Z,99.99
2016-03-14T00:57:06.821Z,99.99
2016-03-14T00:58:06.760Z,99.99
2016-03-14T00:59:19.492Z,99.99
2016-03-14T01:00:07.377Z,99.99
2016-03-14T01:01:06.769Z,99.99
2016-03-14T01:02:06.953Z,99.99
2016-03-14T01:03:06.815Z,99.99
2016-03-14T01:04:16.349Z,99.99
2016-03-14T01:05:16.367Z,99.99
2016-03-14T01:06:29.120Z,99.99
2016-03-14T01:07:16.435Z,99.99
2016-03-14T01:09:26.019Z,99.99
2016-03-14T01:10:25.991Z,99.99
2016-03-14T01:11:45.196Z,99.99
2016-03-14T01:12:25.996Z,99.99
2016-03-14T01:13:26.014Z,99.99
2016-03-14T01:14:26.016Z,99.99
2016-03-14T01:15:26.019Z,99.99
2016-03-14T01:16:26.037Z,99.99
2016-03-14T01:17:26.071Z,99.99
2016-03-14T01:18:26.060Z,99.99
2016-03-14T01:19:26.077Z,99.99
2016-03-14T01:20:26.345Z,99.99
2016-03-14T01:21:38.832Z,99.99
2016-03-14T01:22:26.132Z,99.99
2016-03-14T01:23:51.806Z,99.99
2016-03-14T01:24:35.653Z,99.99
2016-03-14T01:25:55.109Z,99.99
2016-03-14T01:26:41.939Z,99.99
2016-03-14T01:27:35.520Z,99.99
2016-03-14T01:28:48.445Z,99.99
2016-03-14T01:29:35.729Z,99.99
2016-03-14T01:30:35.779Z,99.99
2016-03-14T01:31:35.734Z,99.99
2016-03-14T01:32:48.581Z,99.99
2016-03-14T01:33:42.020Z,99.99
2016-03-14T01:34:35.773Z,99.99
2016-03-14T01:35:48.495Z,99.99
2016-03-14T01:36:35.778Z,99.99
2016-03-14T01:37:35.781Z,99.99
2016-03-14T01:38:35.800Z,99.99
2016-03-14T01:39:35.803Z,99.99
2016-03-14T01:40:35.821Z,99.99
2016-03-14T01:41:35.839Z,99.99
2016-03-14T01:42:35.827Z,99.99
2016-03-14T01:43:35.860Z,99.99
2016-03-14T01:44:35.847Z,99.99
2016-03-14T01:45:35.960Z,99.99
2016-03-14T01:46:36.696Z,99.99
2016-03-14T01:47:35.887Z,99.99
2016-03-14T01:48:48.655Z,99.99
2016-03-14T01:49:35.938Z,99.99
2016-03-14T01:50:35.926Z,99.99
2016-03-14T01:51:35.944Z,99.99
2016-03-14T01:52:35.946Z,99.99
2016-03-14T01:53:35.949Z,99.99
2016-03-14T01:54:35.951Z,99.99
2016-03-14T01:55:35.987Z,99.99
2016-03-14T01:56:36.004Z,99.99
2016-03-14T01:57:48.726Z,99.99
2016-03-14T01:58:35.995Z,99.99
2016-03-14T01:59:55.294Z,99.99
2016-03-14T02:00:48.875Z,99.99
2016-03-14T02:01:36.050Z,99.99
2016-03-14T02:03:01.726Z,99.99
2016-03-14T02:03:36.055Z,99.99
2016-03-14T02:05:52.842Z,99.99
2016-03-14T02:06:52.844Z,99.99
2016-03-14T02:07:52.862Z,99.99
2016-03-14T02:08:52.850Z,99.99
2016-03-14T02:10:05.636Z,99.99
2016-03-14T02:11:05.623Z,99.99
2016-03-14T02:11:52.905Z,99.99
2016-03-14T02:12:52.907Z,99.99
2016-03-14T02:13:52.941Z,99.99
2016-03-14T02:14:56.100Z,99.99
2016-03-14T02:15:56.102Z,99.99
2016-03-14T02:17:08.843Z,99.99
2016-03-14T02:17:56.124Z,99.99
2016-03-14T02:18:56.110Z,99.99
2016-03-14T02:19:56.129Z,99.99
2016-03-14T02:20:56.226Z,99.99
2016-03-14T02:21:56.759Z,99.99
2016-03-14T02:22:56.168Z,99.99
2016-03-14T02:23:57.576Z,99.99
2016-03-14T02:24:56.252Z,99.99
2016-03-14T02:25:57.598Z,99.99
2016-03-14T02:27:08.948Z,99.99
2016-03-14T02:27:56.198Z,99.99
2016-03-14T02:29:21.906Z,99.99
2016-03-14T02:30:05.768Z,99.99
2016-03-14T02:31:05.786Z,99.99
2016-03-14T02:32:05.804Z,99.99
2016-03-14T02:33:05.838Z,99.99
2016-03-14T02:34:25.014Z,99.99
2016-03-14T02:35:05.906Z,99.99
2016-03-14T02:36:05.831Z,99.99
2016-03-14T02:37:05.850Z,99.99
2016-03-14T02:38:05.852Z,99.99
2016-03-14T02:39:05.870Z,99.99
2016-03-14T02:40:18.608Z,99.99
2016-03-14T02:41:18.625Z,99.99
2016-03-14T02:42:05.909Z,99.99
2016-03-14T02:43:25.100Z,99.99
2016-03-14T02:44:05.961Z,99.99
2016-03-14T02:45:05.918Z,99.99
2016-03-14T02:46:15.467Z,99.99
2016-03-14T02:47:15.501Z,99.99
2016-03-14T02:48:15.511Z,99.99
2016-03-14T02:49:15.487Z,99.99
2016-03-14T02:50:15.491Z,99.99
2016-03-14T02:51:15.497Z,99.99
2016-03-14T02:52:15.504Z,99.99
2016-03-14T02:53:15.498Z,99.99
2016-03-14T02:54:15.559Z,99.99
2016-03-14T02:55:21.759Z,99.99
2016-03-14T02:56:15.555Z,99.99
2016-03-14T02:57:15.506Z,99.99
2016-03-14T02:58:15.552Z,99.99
2016-03-14T02:59:34.741Z,99.99
2016-03-14T03:00:21.789Z,99.99
2016-03-14T03:01:15.540Z,99.99
2016-03-14T03:02:15.541Z,99.99
2016-03-14T03:03:15.543Z,99.99
2016-03-14T03:04:15.764Z,99.99
2016-03-14T03:05:15.562Z,99.99
2016-03-14T03:06:21.861Z,99.99
2016-03-14T03:07:15.583Z,99.99
2016-03-14T03:08:34.803Z,99.99
2016-03-14T03:09:15.713Z,99.99
2016-03-14T03:10:46.918Z,99.99
2016-03-14T03:11:28.374Z,99.99
2016-03-14T03:12:15.642Z,99.99
2016-03-14T03:13:34.974Z,99.99
2016-03-14T03:14:15.898Z,99.99
2016-03-14T03:16:30.903Z,99.99
2016-03-14T03:17:30.922Z,99.99
2016-03-14T03:18:30.924Z,99.99
2016-03-14T03:19:43.693Z,99.99
2016-03-14T03:20:30.945Z,99.99
2016-03-14T03:21:30.948Z,99.99
2016-03-14T03:22:30.997Z,99.99
2016-03-14T03:23:30.984Z,99.99
2016-03-14T03:24:43.706Z,99.99
2016-03-14T03:25:30.865Z,99.99
2016-03-14T03:26:31.008Z,99.99
2016-03-14T03:27:43.729Z,99.99
2016-03-14T03:28:31.013Z,99.99
2016-03-14T03:29:50.297Z,99.99
2016-03-14T03:30:31.034Z,99.99
2016-03-14T03:31:31.053Z,99.99
2016-03-14T03:32:41.353Z,99.99
2016-03-14T03:33:40.761Z,99.99
2016-03-14T03:34:40.717Z,99.99
2016-03-14T03:35:40.720Z,99.99
2016-03-14T03:36:40.739Z,99.99
2016-03-14T03:37:40.772Z,99.99
2016-03-14T03:38:40.744Z,99.99
2016-03-14T03:39:47.043Z,99.99
2016-03-14T03:40:40.764Z,99.99
2016-03-14T03:41:40.783Z,99.99
2016-03-14T03:43:00.005Z,99.99
2016-03-14T03:43:40.804Z,99.99
2016-03-14T03:45:12.121Z,99.99
2016-03-14T03:45:50.371Z,99.99
2016-03-14T03:46:50.359Z,99.99
2016-03-14T03:47:50.361Z,99.99
2016-03-14T03:48:50.365Z,99.99
2016-03-14T03:49:50.382Z,99.99
2016-03-14T03:50:50.385Z,99.99
2016-03-14T03:51:51.090Z,99.99
2016-03-14T03:52:51.016Z,99.99
2016-03-14T03:53:50.440Z,99.99
2016-03-14T03:54:51.881Z,99.99
2016-03-14T03:55:50.445Z,99.99
2016-03-14T03:56:50.464Z,99.99
2016-03-14T03:57:50.466Z,99.99
2016-03-14T03:59:03.203Z,99.99
2016-03-14T03:59:50.487Z,99.99
2016-03-14T04:01:16.164Z,99.99
2016-03-14T04:02:00.024Z,99.99
2016-03-14T04:03:19.310Z,99.99
2016-03-14T04:04:12.782Z,99.99
2016-03-14T04:05:00.125Z,99.99
2016-03-14T04:06:26.241Z,99.99
2016-03-14T04:07:00.084Z,99.99
2016-03-14T04:08:09.761Z,99.99
2016-03-14T04:10:19.564Z,99.99
2016-03-14T04:11:19.567Z,99.99
2016-03-14T04:12:45.257Z,99.99
2016-03-14T04:13:29.290Z,99.99
2016-03-14T04:14:54.684Z,99.99
2016-03-14T04:15:44.874Z,99.99
2016-03-14T04:17:04.221Z,99.99
2016-03-14T04:17:38.568Z,99.99
2016-03-14T04:19:53.775Z,99.99
2016-03-14T04:20:53.825Z,99.99
2016-03-14T04:21:53.812Z,99.99
2016-03-14T04:22:53.909Z,99.99
2016-03-14T04:24:00.099Z,99.99
2016-03-14T04:25:06.589Z,99.99
2016-03-14T04:26:13.123Z,99.99
2016-03-14T04:27:23.360Z,99.99
2016-03-14T04:28:34.691Z,99.99
2016-03-14T04:29:21.975Z,99.99
2016-03-14T04:30:41.243Z,99.99
2016-03-14T04:31:25.151Z,99.99
2016-03-14T04:32:34.717Z,99.99
2016-03-14T04:33:44.361Z,99.99
2016-03-14T04:34:44.379Z,99.99
2016-03-14T04:35:57.162Z,99.99
2016-03-14T04:38:25.358Z,99.99
2016-03-14T04:39:25.267Z,99.99
2016-03-14T04:40:25.286Z,99.99
2016-03-14T04:41:38.038Z,99.99
2016-03-14T04:42:38.041Z,99.99
2016-03-14T04:44:54.109Z,99.99
2016-03-14T04:47:03.661Z,99.99
2016-03-14T04:49:19.012Z,99.99
2016-03-14T04:50:19.031Z,99.99
2016-03-14T04:51:20.471Z,99.99
2016-03-14T04:52:19.068Z,99.99
2016-03-14T04:53:31.804Z,99.99
2016-03-14T04:54:19.120Z,99.99
2016-03-14T04:55:31.857Z,99.99
2016-03-14T04:56:50.390Z,99.99
2016-03-14T04:57:34.362Z,99.99
2016-03-14T04:58:34.349Z,99.99
2016-03-14T04:59:47.101Z,99.99
2016-03-14T05:00:47.104Z,99.99
2016-03-14T05:01:34.404Z,99.99
2016-03-14T05:02:37.532Z,99.99
2016-03-14T05:04:03.207Z,99.99
2016-03-14T05:04:37.569Z,99.99
2016-03-14T05:06:08.855Z,99.99
2016-03-14T05:06:54.777Z,99.99
2016-03-14T05:07:42.061Z,99.99
2016-03-14T05:09:07.739Z,99.99
2016-03-14T05:09:51.723Z,99.99
2016-03-14T05:10:51.725Z,99.99
2016-03-14T05:11:51.931Z,99.99
2016-03-14T05:12:58.027Z,99.99
2016-03-14T05:13:51.999Z,99.99
2016-03-14T05:15:04.502Z,99.99
2016-03-14T05:16:10.991Z,99.99
2016-03-14T05:16:51.788Z,99.99
2016-03-14T05:18:18.074Z,99.99
2016-03-14T05:18:56.340Z,99.99
2016-03-14T05:21:37.193Z,99.99
2016-03-14T05:22:11.538Z,99.99
2016-03-14T05:24:21.090Z,99.99
2016-03-14T05:25:52.453Z,99.99
2016-03-14T05:26:24.237Z,99.99
2016-03-14T05:27:24.240Z,99.99
2016-03-14T05:28:24.273Z,99.99
2016-03-14T05:29:24.261Z,99.99
2016-03-14T05:30:37.138Z,99.99
2016-03-14T05:31:39.922Z,99.99
2016-03-14T05:32:43.503Z,99.99
2016-03-14T05:33:50.068Z,99.99
2016-03-14T05:34:24.961Z,99.99
2016-03-14T05:35:24.308Z,99.99
2016-03-14T05:36:59.608Z,99.99
2016-03-14T05:37:43.548Z,99.99
2016-03-14T05:38:53.145Z,99.99
2016-03-14T05:40:02.803Z,99.99
2016-03-14T05:41:02.806Z,99.99
2016-03-14T05:43:37.392Z,99.99
2016-03-14T05:45:08.694Z,99.99
2016-03-14T05:45:53.179Z,99.99
2016-03-14T05:47:24.512Z,99.99
2016-03-14T05:48:02.777Z,99.99
2016-03-14T05:49:34.111Z,99.99
2016-03-14T05:50:12.379Z,99.99
2016-03-14T05:52:53.276Z,99.99
2016-03-14T05:53:27.560Z,99.99
2016-03-14T05:54:58.874Z,99.99
2016-03-14T05:55:43.065Z,99.99
2016-03-14T05:56:43.052Z,99.99
2016-03-14T05:57:43.054Z,99.99
2016-03-14T05:58:58.464Z,99.99
2016-03-14T05:59:58.309Z,99.99
2016-03-14T06:00:58.531Z,99.99
2016-03-14T06:01:58.284Z,99.99
2016-03-14T06:02:58.271Z,99.99
2016-03-14T06:03:58.289Z,99.99
2016-03-14T06:04:58.308Z,99.99
2016-03-14T06:05:58.388Z,99.99
2016-03-14T06:06:58.319Z,99.99
2016-03-14T06:08:11.058Z,99.99
2016-03-14T06:08:58.527Z,99.99
2016-03-14T06:10:17.547Z,99.99
2016-03-14T06:10:58.360Z,99.99
2016-03-14T06:12:24.052Z,99.99
2016-03-14T06:13:17.588Z,99.99
2016-03-14T06:15:01.465Z,99.99
2016-03-14T06:16:01.483Z,99.99
2016-03-14T06:17:16.738Z,99.99
2016-03-14T06:18:16.990Z,99.99
2016-03-14T06:19:29.447Z,99.99
2016-03-14T06:20:29.449Z,99.99
2016-03-14T06:22:39.095Z,99.99
2016-03-14T06:23:51.801Z,99.99
2016-03-14T06:24:43.054Z,99.99
2016-03-14T06:25:42.885Z,99.99
2016-03-14T06:26:43.075Z,99.99
2016-03-14T06:27:42.953Z,99.99
2016-03-14T06:28:55.611Z,99.99
2016-03-14T06:29:42.942Z,99.99
2016-03-14T06:31:52.495Z,99.99
2016-03-14T06:32:52.498Z,99.99
2016-03-14T06:33:52.500Z,99.99
2016-03-14T06:35:11.817Z,99.99
2016-03-14T06:37:33.308Z,99.99
2016-03-14T06:38:27.045Z,99.99
2016-03-14T06:39:39.813Z,99.99
2016-03-14T06:40:27.066Z,99.99
2016-03-14T06:41:46.271Z,99.99
2016-03-14T06:42:27.103Z,99.99
2016-03-14T06:43:27.105Z,99.99
2016-03-14T06:44:27.108Z,99.99
2016-03-14T06:46:36.691Z,99.99
2016-03-14T06:47:55.912Z,99.99
2016-03-14T06:48:39.806Z,99.99
2016-03-14T06:49:39.824Z,99.99
2016-03-14T06:50:40.421Z,99.99
2016-03-14T06:52:05.626Z,99.99
2016-03-14T06:53:15.506Z,99.99
2016-03-14T06:54:09.322Z,99.99
2016-03-14T06:55:59.496Z,99.61
2016-03-14T06:56:53.249Z,99.42
2016-03-14T06:58:12.458Z,99.99
2016-03-14T06:58:59.629Z,99.99
2016-03-14T07:00:24.573Z,99.99
2016-03-14T07:01:03.120Z,99.99
2016-03-14T07:02:34.344Z,99.99
2016-03-14T07:03:03.125Z,99.99
2016-03-14T07:04:03.300Z,99.99
2016-03-14T07:05:03.177Z,99.99
2016-03-14T07:06:03.289Z,99.99
2016-03-14T07:07:03.198Z,99.99
2016-03-14T07:08:03.420Z,99.99
2016-03-14T07:09:03.173Z,99.99
2016-03-14T07:10:03.222Z,99.99
2016-03-14T07:11:03.256Z,99.99
2016-03-14T07:12:03.352Z,98
2016-03-14T07:13:03.167Z,98.28
2016-03-14T07:15:43.582Z,99.09
2016-03-14T07:16:17.960Z,99.09
2016-03-14T07:18:24.200Z,99.47
2016-03-14T07:19:17.999Z,98.05
2016-03-14T07:20:37.408Z,97.96
2016-03-14T07:21:18.566Z,97.67
2016-03-14T07:22:43.663Z,96.45
2016-03-14T07:23:27.556Z,95.17
2016-03-14T07:24:46.763Z,96.35
2016-03-14T07:25:56.312Z,96.83
2016-03-14T07:27:01.955Z,96.69
2016-03-14T07:27:59.504Z,96.59
2016-03-14T07:29:11.603Z,95.74
2016-03-14T07:29:43.400Z,93.94
2016-03-14T07:30:43.403Z,93.85
2016-03-14T07:31:43.406Z,94.98
2016-03-14T07:32:43.440Z,94.6
2016-03-14T07:33:49.709Z,94.79
2016-03-14T07:34:59.258Z,93.85
2016-03-14T07:35:59.479Z,91.86
2016-03-14T07:36:59.326Z,90.86
2016-03-14T07:37:59.329Z,90.86
2016-03-14T07:38:59.331Z,91.05
2016-03-14T07:39:59.349Z,89.73
2016-03-14T07:40:59.367Z,88.59
2016-03-14T07:41:59.558Z,88.12
2016-03-14T07:42:59.358Z,87.65
2016-03-14T07:43:59.423Z,87.17
2016-03-14T07:45:05.675Z,86.7
2016-03-14T07:45:59.428Z,87.46
2016-03-14T07:47:18.636Z,84.23
2016-03-14T07:48:12.186Z,85
2016-03-14T07:49:30.752Z,83.58
2016-03-14T07:50:14.988Z,81.59
2016-03-14T07:51:14.929Z,81.49
2016-03-14T07:53:27.685Z,80.45
2016-03-14T07:54:14.968Z,80.87
2016-03-14T07:55:14.971Z,80.11
2016-03-14T07:56:27.754Z,79.93
2016-03-14T07:57:15.007Z,79.93
2016-03-14T07:58:34.244Z,80.21
2016-03-14T07:59:15.841Z,80.49
2016-03-14T08:00:40.718Z,80.11
2016-03-14T08:01:24.581Z,79.45
2016-03-14T08:02:50.270Z,79.74
2016-03-14T08:03:26.023Z,78.98
2016-03-14T08:05:39.810Z,78.79
2016-03-14T08:06:39.903Z,78.69
2016-03-14T08:07:52.594Z,77.75
2016-03-14T08:08:40.471Z,76.99
2016-03-14T08:09:40.240Z,77.65
2016-03-14T08:10:40.149Z,77.56
2016-03-14T08:11:40.527Z,77.65
2016-03-14T08:12:59.122Z,77.56
2016-03-14T08:14:11.252Z,77.22
2016-03-14T08:15:05.612Z,77.59
2016-03-14T08:15:39.958Z,77.78
2016-03-14T08:16:40.024Z,77.97
2016-03-14T08:17:40.058Z,77.5
2016-03-14T08:18:40.013Z,78.59
2016-03-14T08:19:52.876Z,79.64
2016-03-14T08:20:40.659Z,81.12
2016-03-14T08:21:59.256Z,82.34
2016-03-14T08:22:40.056Z,82.44
2016-03-14T08:24:05.762Z,81.21
2016-03-14T08:24:40.092Z,80.21
2016-03-14T08:26:46.457Z,78.59
2016-03-14T08:27:40.148Z,78.83
2016-03-14T08:28:46.462Z,78.64
2016-03-14T08:29:40.403Z,78.16
2016-03-14T08:30:40.217Z,78.26
2016-03-14T08:31:46.705Z,77.88
2016-03-14T08:32:40.598Z,77.97
2016-03-14T08:33:40.226Z,77.78
2016-03-14T08:34:46.525Z,78.54
2016-03-14T08:36:05.966Z,77.88
2016-03-14T08:36:40.344Z,78.45
2016-03-14T08:37:40.283Z,78.26
2016-03-14T08:38:40.317Z,77.97
2016-03-14T08:39:40.352Z,78.45
2016-03-14T08:40:46.605Z,78.54
2016-03-14T08:41:53.092Z,77.78
2016-03-14T08:42:40.641Z,77.97
2016-03-14T08:43:59.628Z,78.73
2016-03-14T08:44:41.819Z,77.88
2016-03-14T08:45:40.461Z,77.69
2016-03-14T08:46:43.480Z,76.84
2016-03-14T08:49:21.660Z,80.4
2016-03-14T08:49:56.441Z,80.58
2016-03-14T08:50:56.022Z,80.58
2016-03-14T08:51:56.024Z,80.63
2016-03-14T08:52:56.043Z,82.2
2016-03-14T08:54:08.907Z,82.48
2016-03-14T08:54:56.079Z,82.76
2016-03-14T08:56:21.757Z,83.62
2016-03-14T08:56:56.929Z,82.95
2016-03-14T08:58:27.434Z,84.09
2016-03-14T08:59:08.874Z,84.61
2016-03-14T08:59:56.171Z,85.47
2016-03-14T09:01:21.832Z,84.61
2016-03-14T09:02:08.929Z,84.94
2016-03-14T09:03:27.509Z,85.57
2016-03-14T09:03:56.212Z,84.94
2016-03-14T09:04:56.762Z,84.75
2016-03-14T09:06:21.925Z,83.9
2016-03-14T09:07:09.098Z,83.62
2016-03-14T09:08:28.101Z,82.48
2016-03-14T09:09:09.150Z,82.67
2016-03-14T09:10:08.966Z,82.76
2016-03-14T09:11:28.250Z,83.24
2016-03-14T09:12:18.393Z,83.62
2016-03-14T09:13:37.818Z,83.14
2016-03-14T09:14:24.930Z,83.9
2016-03-14T09:15:12.199Z,83.9
2016-03-14T09:16:37.872Z,83.43
2016-03-14T09:17:12.844Z,83.56
2016-03-14T09:19:27.631Z,82.9
2016-03-14T09:20:27.727Z,81.1
2016-03-14T09:21:27.668Z,80.15
2016-03-14T09:22:27.654Z,79.96
2016-03-14T09:23:33.970Z,80.53
2016-03-14T09:24:40.440Z,79.91
2016-03-14T09:25:27.960Z,80.57
2016-03-14T09:26:27.728Z,79.91
2016-03-14T09:27:47.277Z,79.91
2016-03-14T09:28:27.779Z,80
2016-03-14T09:30:43.192Z,79.34
2016-03-14T09:31:43.116Z,79.06
2016-03-14T09:32:43.151Z,79.15
2016-03-14T09:33:43.356Z,78.87
2016-03-14T09:35:08.861Z,79.28
2016-03-14T09:35:43.189Z,78.53
2016-03-14T09:36:43.817Z,78.05
2016-03-14T09:37:43.461Z,78.15
2016-03-14T09:38:43.214Z,77.86
2016-03-14T09:39:43.247Z,78.34
2016-03-14T09:40:43.250Z,79
2016-03-14T09:41:56.019Z,79.82
2016-03-14T09:42:56.053Z,80
2016-03-14T09:44:02.508Z,80.04
2016-03-14T09:44:46.605Z,79.47
2016-03-14T09:45:46.889Z,80.04
2016-03-14T09:46:46.641Z,78.91
2016-03-14T09:47:46.660Z,78.62
2016-03-14T09:48:46.662Z,78.53
2016-03-14T09:49:52.961Z,78.15
2016-03-14T09:50:46.699Z,77.77
2016-03-14T09:51:46.920Z,76.92
2016-03-14T09:52:46.736Z,76.82
2016-03-14T09:53:46.785Z,77.01
2016-03-14T09:54:51.132Z,76.44
2016-03-14T09:55:51.165Z,76.25
2016-03-14T09:56:51.184Z,76.92
2016-03-14T09:57:51.404Z,77.58
2016-03-14T09:58:51.845Z,78.24
2016-03-14T10:00:03.957Z,76.82
2016-03-14T10:00:57.491Z,76.82
2016-03-14T10:01:51.244Z,75.68
2016-03-14T10:02:51.356Z,75.78
2016-03-14T10:03:51.343Z,74.83
2016-03-14T10:05:17.254Z,75.59
2016-03-14T10:05:51.942Z,75.68
2016-03-14T10:07:22.629Z,76.15
2016-03-14T10:07:51.332Z,76.92
2016-03-14T10:08:51.398Z,76.25
2016-03-14T10:09:51.369Z,76.73
2016-03-14T10:10:51.653Z,76.34
2016-03-14T10:11:51.421Z,76.29
2016-03-14T10:12:51.424Z,75.15
2016-03-14T10:13:51.458Z,74.68
2016-03-14T10:14:51.711Z,74.77
2016-03-14T10:15:51.682Z,74.96
2016-03-14T10:16:51.685Z,74.58
2016-03-14T10:17:57.859Z,74.77
2016-03-14T10:18:51.518Z,73.82
2016-03-14T10:19:51.755Z,73.16
2016-03-14T10:20:51.585Z,73.92
2016-03-14T10:23:04.498Z,72.11
2016-03-14T10:24:01.360Z,72.4
2016-03-14T10:25:01.378Z,72.78
2016-03-14T10:26:14.181Z,73.72
2016-03-14T10:27:02.024Z,73.63
2016-03-14T10:28:01.417Z,73.19
2016-03-14T10:29:14.345Z,72.25
2016-03-14T10:30:01.454Z,71.01
2016-03-14T10:31:20.897Z,70.73
2016-03-14T10:32:07.772Z,70.25
2016-03-14T10:33:01.525Z,69.4
2016-03-14T10:34:01.528Z,68.35
2016-03-14T10:35:01.546Z,68.73
2016-03-14T10:36:01.861Z,69.49
2016-03-14T10:37:01.613Z,69.78
2016-03-14T10:38:01.788Z,69.68
2016-03-14T10:39:01.806Z,70.59
2016-03-14T10:40:01.637Z,70.88
2016-03-14T10:41:02.077Z,69.74
2016-03-14T10:42:01.767Z,69.84
2016-03-14T10:43:01.942Z,69.96
2016-03-14T10:44:01.977Z,69.21
2016-03-14T10:45:01.932Z,69.49
2016-03-14T10:46:01.732Z,67.69
2016-03-14T10:47:14.471Z,68.07
2016-03-14T10:48:01.768Z,68.07
2016-03-14T10:49:21.008Z,68.83
2016-03-14T10:50:05.118Z,68.23
2016-03-14T10:51:05.604Z,68.35
2016-03-14T10:52:05.154Z,68.44
2016-03-14T10:53:05.187Z,67.79
2016-03-14T10:54:05.190Z,67.59
2016-03-14T10:55:24.492Z,67.12
2016-03-14T10:56:05.226Z,67.25
2016-03-14T10:57:05.246Z,67.06
2016-03-14T10:58:05.514Z,67.63
2016-03-14T10:59:05.892Z,69.53
2016-03-14T11:00:06.206Z,69.24
2016-03-14T11:01:18.041Z,68.67
2016-03-14T11:02:05.322Z,67.47
2016-03-14T11:03:05.340Z,66.52
2016-03-14T11:04:05.374Z,66.24
2016-03-14T11:05:05.377Z,65.67
2016-03-14T11:06:18.132Z,65.19
2016-03-14T11:07:06.023Z,65
2016-03-14T11:08:05.448Z,63.48
2016-03-14T11:09:05.466Z,63.1
2016-03-14T11:10:06.125Z,62.81
2016-03-14T11:11:06.081Z,63.67
2016-03-14T11:12:05.505Z,62.81
2016-03-14T11:13:06.945Z,62.85
2016-03-14T11:15:46.735Z,62.15
2016-03-14T11:17:12.175Z,62.91
2016-03-14T11:17:59.553Z,63.1
2016-03-14T11:18:46.758Z,62.72
2016-03-14T11:19:49.636Z,62.53
2016-03-14T11:20:47.389Z,61.29
2016-03-14T11:21:59.770Z,60.38
2016-03-14T11:22:48.085Z,60.18
2016-03-14T11:23:46.680Z,58.47
2016-03-14T11:24:59.590Z,58.47
2016-03-14T11:25:46.921Z,58.76
2016-03-14T11:27:06.096Z,59.23
2016-03-14T11:27:46.910Z,59.14
2016-03-14T11:29:06.132Z,57.71
2016-03-14T11:29:46.775Z,57.43
2016-03-14T11:31:18.047Z,59.33
2016-03-14T11:32:02.485Z,59.2
2016-03-14T11:33:02.315Z,59.87
2016-03-14T11:34:03.208Z,59.68
2016-03-14T11:35:02.555Z,60.47
2016-03-14T11:36:02.416Z,59.61
2016-03-14T11:37:28.031Z,59.8
2016-03-14T11:38:02.359Z,59.33
2016-03-14T11:39:33.693Z,58.22
2016-03-14T11:40:17.992Z,57.55
2016-03-14T11:41:18.027Z,56.6
2016-03-14T11:42:18.060Z,56.53
2016-03-14T11:43:18.078Z,56.72
2016-03-14T11:44:24.456Z,57.01
2016-03-14T11:45:18.553Z,57.7
2016-03-14T11:46:18.306Z,57.42
2016-03-14T11:47:19.620Z,55.8
2016-03-14T11:48:18.420Z,54.68
2016-03-14T11:49:44.095Z,52.49
2016-03-14T11:50:34.911Z,52.87
2016-03-14T11:51:30.038Z,52.68
2016-03-14T11:52:28.462Z,52.87
2016-03-14T11:53:29.246Z,51.45
2016-03-14T11:54:41.414Z,51.73
2016-03-14T11:55:29.345Z,53.76
2016-03-14T11:56:54.337Z,52.23
2016-03-14T11:57:30.143Z,50.87
2016-03-14T11:58:28.548Z,51.16
2016-03-14T11:59:47.763Z,51.54
2016-03-14T12:00:35.450Z,51.64
2016-03-14T12:01:28.902Z,50.59
2016-03-14T12:02:48.292Z,51.64
2016-03-14T12:03:28.822Z,51.8
2016-03-14T12:04:59.854Z,51.8
2016-03-14T12:05:28.652Z,51.61
2016-03-14T12:06:28.623Z,52.75
2016-03-14T12:07:41.422Z,52.18
2016-03-14T12:08:28.938Z,52.37
2016-03-14T12:09:28.753Z,52.28
2016-03-14T12:10:29.381Z,52.37
2016-03-14T12:11:54.445Z,51.7
2016-03-14T12:12:39.073Z,51.7
2016-03-14T12:13:39.699Z,51.61
2016-03-14T12:14:39.343Z,53.52
2016-03-14T12:15:38.861Z,53.61
2016-03-14T12:16:51.910Z,52.37
2016-03-14T12:17:39.397Z,51.8
2016-03-14T12:18:39.039Z,51.35
2016-03-14T12:19:45.511Z,51.16
2016-03-14T12:20:39.185Z,51.45
2016-03-14T12:21:58.422Z,51.18
2016-03-14T12:22:39.659Z,50.8
2016-03-14T12:24:10.366Z,50.52
2016-03-14T12:24:40.774Z,50.07
2016-03-14T12:25:39.371Z,48.71
2016-03-14T12:26:41.201Z,48.71
2016-03-14T12:27:39.360Z,50.9
2016-03-14T12:29:19.023Z,51.45
2016-03-14T12:29:39.491Z,51.25
2016-03-14T12:30:52.213Z,50.78
2016-03-14T12:31:53.403Z,51.16
2016-03-14T12:32:39.484Z,50.21
2016-03-14T12:34:10.767Z,51.82
2016-03-14T12:34:55.692Z,52.2
2016-03-14T12:35:56.944Z,53.44
2016-03-14T12:36:55.495Z,53.23
2016-03-14T12:37:56.403Z,54.18
2016-03-14T12:38:55.781Z,54.18
2016-03-14T12:39:55.550Z,55.13
2016-03-14T12:40:56.349Z,54.08
2016-03-14T12:41:56.445Z,54.11
2016-03-14T12:43:08.526Z,54.21
2016-03-14T12:43:55.825Z,53.92
2016-03-14T12:44:56.328Z,53.54
2016-03-14T12:45:56.596Z,51.73
2016-03-14T12:46:57.474Z,51.45
2016-03-14T12:47:56.930Z,52.59
2016-03-14T12:48:55.963Z,52.71
2016-03-14T12:50:15.419Z,51.76
2016-03-14T12:51:18.207Z,51.56
2016-03-14T12:52:21.927Z,51.66
2016-03-14T12:53:27.166Z,50.52
2016-03-14T12:54:13.275Z,51.18
2016-03-14T12:55:12.668Z,53.44
2016-03-14T12:56:13.420Z,54.49
2016-03-14T12:57:12.939Z,53.54
2016-03-14T12:58:12.785Z,52.78
2016-03-14T12:59:14.101Z,52.42
2016-03-14T13:00:13.556Z,51.66
2016-03-14T13:01:13.996Z,51.28
2016-03-14T13:02:13.733Z,50.8
2016-03-14T13:03:13.407Z,50.61
2016-03-14T13:04:32.647Z,49.37
2016-03-14T13:05:13.881Z,50.4
2016-03-14T13:06:12.509Z,50.59
2016-03-14T13:07:32.139Z,49.63
2016-03-14T13:08:14.124Z,49.44
2016-03-14T13:09:25.661Z,48.68
2016-03-14T13:10:14.161Z,48.49
2016-03-14T13:11:12.711Z,47.25
2016-03-14T13:12:31.997Z,48.58
2016-03-14T13:13:12.841Z,49.51
2016-03-14T13:14:12.797Z,49.04
2016-03-14T13:15:19.349Z,49.42
2016-03-14T13:17:36.714Z,49.51
2016-03-14T13:18:37.325Z,49.42
2016-03-14T13:19:36.750Z,49.13
2016-03-14T13:20:37.955Z,49.61
2016-03-14T13:21:49.818Z,50.18
2016-03-14T13:22:55.836Z,49.32
2016-03-14T13:23:36.854Z,49.32
2016-03-14T13:25:02.342Z,50.37
2016-03-14T13:25:48.423Z,51.32
2016-03-14T13:26:49.222Z,51.7
2016-03-14T13:27:48.459Z,50.94
2016-03-14T13:28:48.338Z,50.18
2016-03-14T13:29:48.215Z,51.25
2016-03-14T13:30:48.279Z,51.51
2016-03-14T13:31:48.704Z,52.09
2016-03-14T13:32:48.426Z,52.37
2016-03-14T13:33:48.523Z,51.61
2016-03-14T13:35:14.244Z,51.42
2016-03-14T13:36:06.293Z,50.35
2016-03-14T13:37:06.374Z,50.85
2016-03-14T13:38:06.236Z,51.2
2016-03-14T13:39:06.208Z,50.63
2016-03-14T13:40:06.226Z,50.46
2016-03-14T13:41:18.998Z,49.8
2016-03-14T13:42:06.342Z,50.18